Time;durP1;ratioP1;P1;durP2;ratioP2;P2;SDS_P1;SDS_P2;PMS_P1;PMS_P2;Temp;Humidity;BMP_temperature;BMP_pressure;BME280_temperature;BME280_humidity;BME280_pressure;Samples;Min_cycle;Max_cycle;Signal;HPM_P1;HPM_P2
2022/06/12 00:03:33;;;;;;;1.35;0.40;;;;;;;21.32;45.82;102260.91;16126489;19;130840;-55
2022/06/12 00:08:55;;;;;;;0.82;0.40;;;;;;;21.31;45.69;102259.22;16132147;19;129561;-54
2022/06/12 00:14:17;;;;;;;1.15;0.43;;;;;;;21.30;45.73;102252.81;16132979;19;131475;-53
2022/06/12 00:19:41;;;;;;;0.90;0.30;;;;;;;21.30;45.56;102254.72;16143188;19;129379;-55
2022/06/12 00:25:06;;;;;;;1.13;0.40;;;;;;;21.29;45.74;102251.09;16150071;19;130243;-54
2022/06/12 00:30:28;;;;;;;0.97;0.30;;;;;;;21.29;45.76;102244.69;16148178;19;129874;-51
2022/06/12 00:35:50;;;;;;;1.08;0.30;;;;;;;21.28;45.99;102254.13;16146974;19;129159;-55
2022/06/12 00:41:11;;;;;;;4.50;0.30;;;;;;;21.27;45.99;102258.81;16144179;19;129555;-55
2022/06/12 00:46:38;;;;;;;2.95;0.60;;;;;;;21.27;45.89;102256.03;16147259;19;129601;-55
2022/06/12 00:52:12;;;;;;;0.20;0.15;;;;;;;21.27;45.76;102258.00;16142727;19;129273;-55
2022/06/12 00:57:35;;;;;;;1.23;0.40;;;;;;;21.26;45.73;102256.28;16147047;19;130524;-55
2022/06/12 01:02:58;;;;;;;1.38;0.30;;;;;;;21.24;46.10;102258.44;16142976;19;128953;-55
2022/06/12 01:08:21;;;;;;;1.35;0.40;;;;;;;21.24;45.60;102253.72;16146606;19;130575;-54
2022/06/12 01:13:45;;;;;;;0.63;0.40;;;;;;;21.22;45.46;102256.75;16146644;19;129632;-54
2022/06/12 01:19:09;;;;;;;0.95;0.38;;;;;;;21.22;45.57;102262.31;16146861;19;129446;-56
2022/06/12 01:24:43;;;;;;;1.00;0.30;;;;;;;21.22;45.45;102251.19;16141904;19;129860;-53
2022/06/12 01:30:28;;;;;;;1.23;0.40;;;;;;;21.21;45.84;102248.63;16140576;19;129236;-55
2022/06/12 01:36:04;;;;;;;1.00;0.20;;;;;;;21.19;45.42;102246.06;16143134;19;129345;-54
2022/06/12 01:41:41;;;;;;;0.60;0.30;;;;;;;21.19;45.72;102240.50;16141962;19;129104;-55
2022/06/12 01:47:24;;;;;;;0.55;0.20;;;;;;;21.18;45.71;102238.78;16145470;19;130203;-55
2022/06/12 01:53:27;;;;;;;1.02;0.20;;;;;;;21.17;45.75;102237.09;16140197;19;131009;-55
2022/06/12 01:59:32;;;;;;;2.35;0.20;;;;;;;21.17;45.54;102244.59;16133839;19;129633;-54
2022/06/12 02:05:29;;;;;;;1.75;0.30;;;;;;;21.17;45.43;102247.38;16129196;19;128915;-55
2022/06/12 02:10:56;;;;;;;0.90;0.20;;;;;;;21.16;45.68;102243.78;16132875;19;128955;-54
2022/06/12 02:16:23;;;;;;;1.45;0.30;;;;;;;21.14;45.51;102245.06;16132397;19;130334;-55
2022/06/12 02:22:03;;;;;;;0.65;0.30;;;;;;;21.15;45.49;102242.06;16130109;19;131612;-55
2022/06/12 02:27:31;;;;;;;0.70;0.30;;;;;;;21.12;45.63;102250.88;16132237;19;129899;-55
2022/06/12 02:32:59;;;;;;;0.60;0.20;;;;;;;21.12;45.51;102239.75;16134961;19;130375;-55
2022/06/12 02:38:26;;;;;;;0.55;0.20;;;;;;;21.11;45.54;102238.03;16140082;19;129127;-55
2022/06/12 02:43:54;;;;;;;0.93;0.30;;;;;;;21.11;45.51;102229.69;16137598;19;129400;-54
2022/06/12 02:49:18;;;;;;;0.68;0.20;;;;;;;21.10;45.64;102241.91;16136058;19;129016;-53
2022/06/12 02:55:11;;;;;;;1.52;0.25;;;;;;;21.11;45.34;102232.47;16140833;19;129341;-54
2022/06/12 03:00:53;;;;;;;0.50;0.20;;;;;;;21.08;45.80;102227.34;16136088;19;129200;-54
2022/06/12 03:06:17;;;;;;;0.82;0.20;;;;;;;21.07;45.61;102231.22;16139211;19;131444;-54
2022/06/12 03:11:42;;;;;;;1.27;0.20;;;;;;;21.08;45.67;102243.22;16140652;19;129493;-55
2022/06/12 03:17:04;;;;;;;0.47;0.20;;;;;;;21.06;45.76;102237.88;16138182;19;130411;-53
2022/06/12 03:22:53;;;;;;;0.85;0.17;;;;;;;21.06;45.75;102235.94;16136163;19;129419;-54
2022/06/12 03:28:27;;;;;;;0.93;0.43;;;;;;;21.04;45.38;102238.09;16140090;19;129526;-54
2022/06/12 03:34:28;;;;;;;2.97;0.30;;;;;;;21.06;45.74;102240.66;16135327;19;129651;-55
2022/06/12 03:40:23;;;;;;;0.28;0.20;;;;;;;21.04;45.58;102242.84;16137171;19;129078;-53
2022/06/12 03:46:06;;;;;;;0.52;0.13;;;;;;;21.03;45.80;102246.69;16137328;19;132167;-53
2022/06/12 03:51:28;;;;;;;0.77;0.20;;;;;;;21.00;45.65;102247.97;16136351;19;129053;-54
2022/06/12 04:02:46;;;;;;;0.55;0.20;;;;;;;21.00;45.73;102255.50;16147721;19;129511;-54
2022/06/12 04:08:14;;;;;;;0.70;0.30;;;;;;;20.99;45.83;102254.63;16148659;19;129564;-54
2022/06/12 04:13:38;;;;;;;0.45;0.10;;;;;;;20.98;45.82;102261.31;16149973;19;128846;-54
2022/06/12 04:19:05;;;;;;;0.20;0.10;;;;;;;21.00;45.56;102261.06;16148771;19;130914;-55
2022/06/12 04:24:50;;;;;;;1.15;0.25;;;;;;;20.99;45.69;102257.41;16146758;19;129530;-54
2022/06/12 04:30:19;;;;;;;0.60;0.20;;;;;;;20.99;45.74;102262.13;16149419;19;129219;-55
2022/06/12 04:35:48;;;;;;;0.98;0.28;;;;;;;20.98;45.71;102266.88;16149437;19;128997;-55
2022/06/12 04:41:19;;;;;;;1.30;0.28;;;;;;;20.98;45.63;102254.88;16146047;19;129369;-54
2022/06/12 04:46:44;;;;;;;0.10;0.10;;;;;;;20.97;45.54;102262.38;16144275;19;129443;-52
2022/06/12 04:52:09;;;;;;;0.00;0.00;;;;;;;20.97;45.39;102261.50;16144751;19;129572;-53
2022/06/12 04:57:32;;;;;;;1.10;0.30;;;;;;;20.96;45.60;102262.59;16147680;19;128963;-52
2022/06/12 05:02:54;;;;;;;0.57;0.30;;;;;;;20.96;45.73;102262.59;16144100;19;130488;-54
2022/06/12 05:08:17;;;;;;;0.52;0.20;;;;;;;20.96;45.55;102257.91;16148235;19;129516;-55
2022/06/12 05:13:39;;;;;;;2.00;0.20;;;;;;;20.95;45.34;102260.88;16148581;19;129913;-55
2022/06/12 05:19:03;;;;;;;0.73;0.20;;;;;;;20.96;45.52;102262.59;16144437;19;129676;-54
2022/06/12 05:24:26;;;;;;;0.30;0.17;;;;;;;20.95;45.69;102267.31;16141843;19;128940;-55
2022/06/12 05:29:49;;;;;;;0.98;0.20;;;;;;;20.97;45.49;102262.38;16145814;19;129503;-55
2022/06/12 05:35:12;;;;;;;1.75;0.20;;;;;;;21.03;45.45;102263.38;16145074;19;130030;-54
2022/06/12 05:40:36;;;;;;;5.78;0.65;;;;;;;21.12;44.79;102267.56;16145252;19;129280;-54
2022/06/12 05:45:58;;;;;;;1.77;0.50;;;;;;;21.18;44.54;102272.19;16139364;19;129374;-54
2022/06/12 05:51:20;;;;;;;2.90;0.80;;;;;;;21.24;43.98;102267.63;16137555;19;129897;-54
2022/06/12 05:56:42;;;;;;;1.85;0.60;;;;;;;21.30;43.83;102269.50;16143757;19;128930;-51
2022/06/12 06:02:04;;;;;;;3.60;0.60;;;;;;;21.36;43.40;102276.06;16141736;19;129045;-54
2022/06/12 06:07:26;;;;;;;3.85;0.93;;;;;;;21.42;43.61;102280.69;16143709;19;128945;-54
2022/06/12 06:12:48;;;;;;;4.65;0.80;;;;;;;21.48;43.52;102290.91;16142390;19;129333;-52
2022/06/12 06:18:09;;;;;;;7.05;1.05;;;;;;;21.51;43.60;102292.41;16141824;19;129046;-54
2022/06/12 06:23:32;;;;;;;5.97;1.08;;;;;;;21.52;43.36;102296.91;16140292;19;129490;-52
2022/06/12 06:28:56;;;;;;;18.20;1.98;;;;;;;21.50;43.35;102286.00;16137945;19;130092;-57
2022/06/12 06:34:18;;;;;;;40.78;3.72;;;;;;;21.55;42.88;102282.50;16138011;19;129295;-55
2022/06/12 06:39:42;;;;;;;22.20;3.33;;;;;;;21.59;43.09;102288.47;16137254;19;130503;-55
2022/06/12 06:50:46;;;;;;;12.82;2.92;;;;;;;21.63;42.41;102289.72;16131249;19;129884;-54
2022/06/12 06:56:08;;;;;;;15.82;2.53;;;;;;;21.68;42.16;102292.63;16135376;19;130648;-55
2022/06/12 07:01:30;;;;;;;10.07;2.70;;;;;;;21.73;41.52;102291.91;16138207;19;129953;-55
2022/06/12 07:06:52;;;;;;;11.63;2.80;;;;;;;21.78;41.39;102292.94;16135247;19;128999;-55
2022/06/12 07:12:13;;;;;;;13.48;2.95;;;;;;;21.83;41.64;102301.44;16139172;19;129484;-55
2022/06/12 07:17:35;;;;;;;14.70;2.55;;;;;;;21.86;41.69;102302.03;16133553;19;129347;-54
2022/06/12 07:22:57;;;;;;;10.95;2.35;;;;;;;21.88;41.59;102308.25;16135619;19;129758;-54
2022/06/12 07:28:22;;;;;;;10.77;2.45;;;;;;;21.88;41.64;102302.66;16134746;19;129425;-53
2022/06/12 07:33:44;;;;;;;11.27;2.33;;;;;;;21.89;41.78;102307.16;16130743;19;129540;-54
2022/06/12 07:39:08;;;;;;;14.13;2.60;;;;;;;21.88;42.02;102308.25;16134601;19;129222;-53
2022/06/12 07:44:39;;;;;;;14.98;2.33;;;;;;;21.90;41.92;102314.44;16130912;19;128841;-53
2022/06/12 07:50:01;;;;;;;11.98;2.20;;;;;;;21.90;42.27;102308.84;16134024;19;133151;-53
2022/06/12 07:55:23;;;;;;;12.85;2.40;;;;;;;21.90;42.41;102306.91;16132429;19;131893;-55
2022/06/12 08:00:47;;;;;;;13.88;2.45;;;;;;;21.89;42.58;102308.00;16128470;19;130091;-53
2022/06/12 08:06:09;;;;;;;13.05;2.35;;;;;;;21.91;42.18;102302.19;16126941;19;129763;-52
2022/06/12 08:11:32;;;;;;;11.43;2.50;;;;;;;21.92;42.31;102298.31;16128472;19;129533;-52
2022/06/12 08:16:54;;;;;;;9.55;2.70;;;;;;;21.94;42.51;102301.72;16126824;19;130295;-51
2022/06/12 08:22:17;;;;;;;7.72;2.50;;;;;;;21.95;42.52;102293.13;16127966;19;129609;-54
2022/06/12 08:27:39;;;;;;;13.52;2.97;;;;;;;21.96;42.79;102297.63;16129926;19;129348;-54
2022/06/12 08:33:01;;;;;;;9.07;2.33;;;;;;;21.93;42.52;102281.38;16127332;19;130044;-54
2022/06/12 08:38:23;;;;;;;8.95;1.77;;;;;;;21.95;42.52;102281.13;16127919;19;129485;-53
2022/06/12 08:44:04;;;;;;;10.43;2.17;;;;;;;21.96;42.30;102280.03;16136898;19;131471;-52
2022/06/12 08:49:32;;;;;;;9.60;3.03;;;;;;;21.97;42.43;102287.31;16142803;19;130118;-54
2022/06/12 08:55:18;;;;;;;11.88;2.45;;;;;;;21.97;42.60;102284.53;16143944;19;130758;-52
2022/06/12 09:00:40;;;;;;;9.23;2.00;;;;;;;21.96;42.64;102272.53;16143624;19;129151;-53
2022/06/12 09:06:26;;;;;;;8.27;2.20;;;;;;;21.99;42.34;102257.28;16132297;19;131362;-53
2022/06/12 09:12:02;;;;;;;10.60;1.60;;;;;;;22.00;41.91;102267.34;16142559;19;130025;-53
2022/06/12 09:17:26;;;;;;;7.10;1.80;;;;;;;22.00;41.86;102272.91;16140361;19;129936;-52
2022/06/12 09:23:20;;;;;;;6.37;2.03;;;;;;;22.02;42.15;102265.19;16137939;19;130425;-52
2022/06/12 09:29:08;;;;;;;5.80;1.80;;;;;;;22.01;42.14;102268.19;16139945;19;130473;-54
2022/06/12 09:34:45;;;;;;;6.65;2.15;;;;;;;22.03;41.79;102252.91;16139239;19;129845;-53
2022/06/12 09:40:31;;;;;;;9.00;1.85;;;;;;;22.04;41.78;102257.41;16145549;19;129507;-49
2022/06/12 09:46:08;;;;;;;7.63;1.77;;;;;;;22.06;41.74;102246.88;16138113;19;130220;-53
2022/06/12 09:52:12;;;;;;;9.48;2.00;;;;;;;22.05;41.54;102256.31;16141237;19;129555;-54
2022/06/12 09:57:49;;;;;;;9.13;2.05;;;;;;;22.06;41.72;102249.66;16141240;19;130113;-52
2022/06/12 10:03:29;;;;;;;8.60;2.20;;;;;;;22.07;41.78;102256.09;16138617;19;131413;-54
2022/06/12 10:08:53;;;;;;;5.07;1.60;;;;;;;22.02;41.79;102256.81;16144174;19;129993;-53
2022/06/12 10:14:21;;;;;;;7.13;1.67;;;;;;;22.04;41.75;102243.47;16139251;19;129957;-54
2022/06/12 10:19:51;;;;;;;10.93;2.42;;;;;;;22.02;41.84;102247.59;16140868;19;129121;-53
2022/06/12 10:25:28;;;;;;;8.68;1.77;;;;;;;22.01;41.63;102246.75;16136014;19;129117;-55
2022/06/12 10:31:17;;;;;;;7.45;1.75;;;;;;;22.02;41.65;102237.31;16138504;19;128975;-56
2022/06/12 10:36:41;;;;;;;9.18;1.85;;;;;;;22.02;41.75;102247.59;16136091;19;130199;-55
2022/06/12 10:42:10;;;;;;;9.25;1.80;;;;;;;22.04;41.29;102243.47;16142809;19;129596;-56
2022/06/12 10:47:42;;;;;;;5.50;1.60;;;;;;;22.03;41.50;102241.75;16139931;19;130755;-55
2022/06/12 10:53:10;;;;;;;4.70;1.20;;;;;;;22.06;41.37;102232.94;16136298;19;129421;-54
2022/06/12 10:58:41;;;;;;;8.27;1.60;;;;;;;22.05;41.51;102239.59;16143910;19;128940;-55
2022/06/12 11:04:03;;;;;;;9.07;1.77;;;;;;;22.05;41.36;102239.59;16135074;19;129538;-54
2022/06/12 11:09:34;;;;;;;7.50;1.73;;;;;;;22.06;41.36;102235.72;16137640;19;128924;-55
2022/06/12 11:15:33;;;;;;;9.00;1.60;;;;;;;22.06;41.58;102232.09;16137845;19;130855;-55
2022/06/12 11:21:07;;;;;;;8.13;1.50;;;;;;;22.06;41.83;102216.22;16138295;19;129078;-55
2022/06/12 11:26:51;;;;;;;4.85;1.40;;;;;;;22.08;41.75;102214.03;16132618;19;132088;-56
2022/06/12 11:32:37;;;;;;;4.47;1.42;;;;;;;22.08;41.64;102214.03;16138902;19;129472;-55
2022/06/12 11:38:18;;;;;;;6.65;1.48;;;;;;;22.10;41.88;102200.72;16136725;19;130095;-55
2022/06/12 11:43:44;;;;;;;3.40;0.98;;;;;;;22.11;42.21;102199.63;16136335;19;129566;-53
2022/06/12 11:49:25;;;;;;;5.03;1.35;;;;;;;22.12;41.51;102194.91;16136542;19;129357;-52
2022/06/12 11:55:12;;;;;;;9.50;1.45;;;;;;;22.13;41.56;102189.09;16133360;19;129128;-54
2022/06/12 12:00:56;;;;;;;5.50;1.63;;;;;;;22.17;41.28;102185.81;16136063;19;130387;-54
2022/06/12 12:06:39;;;;;;;12.52;2.08;;;;;;;22.17;41.25;102183.91;16129351;19;132328;-53
2022/06/12 12:12:06;;;;;;;12.73;3.13;;;;;;;22.19;41.30;102176.16;16136198;19;129724;-50
2022/06/12 12:17:39;;;;;;;15.13;3.08;;;;;;;22.21;41.59;102168.44;16149915;19;129564;-48
2022/06/12 12:23:08;;;;;;;15.50;3.20;;;;;;;22.21;41.19;102165.66;16150585;19;129805;-52
2022/06/12 12:28:40;;;;;;;11.50;2.53;;;;;;;22.22;40.84;102164.53;16150568;19;129708;-56
2022/06/12 12:34:09;;;;;;;13.02;2.35;;;;;;;22.22;40.71;102167.31;16144498;19;129664;-50
2022/06/12 12:45:23;;;;;;;12.48;2.63;;;;;;;22.26;40.48;102154.59;16146370;19;131312;-53
2022/06/12 12:50:46;;;;;;;11.10;2.33;;;;;;;22.19;39.40;102152.97;16148286;19;129504;-56
2022/06/12 12:56:13;;;;;;;16.58;2.30;;;;;;;22.23;39.91;102148.66;16145920;19;129399;-52
2022/06/12 13:01:47;;;;;;;13.48;2.85;;;;;;;22.27;39.72;102142.38;16147167;19;129325;-54
2022/06/12 13:07:40;;;;;;;8.90;2.03;;;;;;;22.28;39.30;102129.25;16142483;19;129517;-53
2022/06/12 13:13:47;;;;;;;7.85;1.73;;;;;;;22.30;39.48;102124.28;16144103;19;128924;-53
2022/06/12 13:19:39;;;;;;;9.03;2.10;;;;;;;22.33;39.82;102125.78;16144650;19;129942;-54
2022/06/12 13:25:03;;;;;;;12.45;1.90;;;;;;;22.31;39.63;102114.84;16145366;19;130544;-52
2022/06/12 13:30:31;;;;;;;6.47;1.50;;;;;;;22.34;39.83;102117.16;16145014;19;129349;-54
2022/06/12 13:36:09;;;;;;;9.40;2.00;;;;;;;22.35;39.40;102118.00;16146169;19;131308;-54
2022/06/12 13:41:38;;;;;;;7.88;1.52;;;;;;;22.39;39.55;102114.50;16145172;19;129635;-53
2022/06/12 13:47:18;;;;;;;8.65;1.98;;;;;;;22.34;38.83;102103.22;16140717;19;129061;-54
2022/06/12 13:52:51;;;;;;;4.60;1.52;;;;;;;22.35;38.79;102102.13;16139542;19;128947;-54
2022/06/12 13:58:39;;;;;;;10.48;1.58;;;;;;;22.35;38.50;102093.75;16144081;19;130174;-54
2022/06/12 14:04:04;;;;;;;5.57;1.88;;;;;;;22.35;37.98;102082.59;16141840;19;129575;-54
2022/06/12 14:09:30;;;;;;;6.73;1.27;;;;;;;22.36;37.96;102086.22;16137299;19;129684;-55
2022/06/12 14:14:53;;;;;;;4.93;1.30;;;;;;;22.34;38.13;102077.28;16142895;19;130353;-55
2022/06/12 14:20:15;;;;;;;3.72;1.30;;;;;;;22.36;37.81;102086.22;16143519;19;130289;-54
2022/06/12 14:25:46;;;;;;;7.68;1.70;;;;;;;22.39;38.36;102080.19;16138572;19;129819;-54
2022/06/12 14:31:16;;;;;;;9.70;1.70;;;;;;;22.40;38.16;102079.91;16137313;19;129318;-50
2022/06/12 14:36:56;;;;;;;9.30;1.80;;;;;;;22.39;38.44;102075.47;16138083;19;129406;-50
2022/06/12 14:42:21;;;;;;;4.88;1.60;;;;;;;22.40;37.99;102079.91;16141388;19;130136;-53
2022/06/12 14:47:50;;;;;;;8.45;1.40;;;;;;;22.42;38.54;102072.16;16135574;19;129727;-53
2022/06/12 14:53:12;;;;;;;10.65;1.90;;;;;;;22.44;38.23;102075.56;16137120;19;129971;-56
2022/06/12 14:58:37;;;;;;;4.43;1.80;;;;;;;22.44;38.49;102058.84;16141483;19;130653;-54
2022/06/12 15:03:59;;;;;;;4.30;1.50;;;;;;;22.47;38.33;102051.06;16137485;19;129308;-53
2022/06/12 15:09:21;;;;;;;9.77;2.17;;;;;;;22.46;38.31;102052.16;16134354;19;130050;-55
2022/06/12 15:14:44;;;;;;;5.18;1.50;;;;;;;22.45;38.35;102062.47;16136466;19;130293;-53
2022/06/12 15:20:06;;;;;;;5.88;1.25;;;;;;;22.45;38.50;102051.31;16137911;19;128939;-54
2022/06/12 15:31:17;;;;;;;6.05;1.45;;;;;;;22.48;38.30;102066.72;16135658;19;130735;-53
2022/06/12 15:36:59;;;;;;;3.78;1.17;;;;;;;22.48;38.33;102072.28;16137757;19;129458;-53
2022/06/12 15:42:22;;;;;;;4.80;1.42;;;;;;;22.48;38.57;102064.75;16139161;19;130817;-54
2022/06/12 15:47:44;;;;;;;3.85;1.00;;;;;;;22.46;38.76;102063.31;16135335;19;129646;-54
2022/06/12 15:53:06;;;;;;;6.30;1.42;;;;;;;22.48;38.88;102066.72;16149899;19;129048;-55
2022/06/12 15:58:28;;;;;;;9.20;1.90;;;;;;;22.48;38.78;102067.53;16150356;19;129329;-55
2022/06/12 16:03:50;;;;;;;6.07;1.27;;;;;;;22.48;38.74;102066.72;16150879;19;130152;-55
2022/06/12 16:09:12;;;;;;;6.43;1.30;;;;;;;22.49;38.75;102051.69;16149562;19;128876;-55
2022/06/12 16:14:34;;;;;;;6.85;1.50;;;;;;;22.50;38.68;102064.53;16152613;19;131993;-56
2022/06/12 16:19:56;;;;;;;4.43;1.23;;;;;;;22.50;38.60;102064.53;16151421;19;129332;-55
2022/06/12 16:25:18;;;;;;;3.25;1.10;;;;;;;22.50;38.48;102056.16;16150309;19;130069;-53
2022/06/12 16:30:42;;;;;;;4.57;1.00;;;;;;;22.51;38.66;102069.03;16153583;19;129718;-58
2022/06/12 16:36:07;;;;;;;5.47;1.50;;;;;;;22.51;38.64;102055.91;16154238;19;129444;-56
2022/06/12 16:41:50;;;;;;;4.33;1.23;;;;;;;22.52;38.49;102059.56;16155805;19;129403;-55
2022/06/12 16:47:12;;;;;;;2.88;1.20;;;;;;;22.54;38.63;102048.97;16149705;19;129562;-56
2022/06/12 16:52:34;;;;;;;3.45;0.90;;;;;;;22.54;38.59;102055.44;16147271;19;129239;-55
2022/06/12 16:57:55;;;;;;;2.40;0.75;;;;;;;22.55;38.48;102050.69;16150527;19;128907;-55
2022/06/12 17:03:17;;;;;;;5.38;1.10;;;;;;;22.55;38.03;102045.09;16169848;19;128814;-50
2022/06/12 17:08:39;;;;;;;3.65;1.30;;;;;;;22.54;38.73;102048.97;16194825;19;129315;-50
2022/06/12 17:14:05;;;;;;;7.65;1.38;;;;;;;22.53;38.56;102044.50;16203743;19;128826;-54
2022/06/12 17:25:13;;;;;;;5.13;0.90;;;;;;;22.53;38.64;102041.72;16162191;19;128913;-52
2022/06/12 17:30:34;;;;;;;4.00;1.13;;;;;;;22.50;38.65;102047.81;16165210;19;129459;-50
2022/06/12 17:35:56;;;;;;;8.15;1.30;;;;;;;22.48;38.75;102048.03;16168998;19;129601;-50
2022/06/12 17:41:18;;;;;;;7.28;1.10;;;;;;;22.46;38.63;102043.81;16165434;19;129159;-50
2022/06/12 17:46:40;;;;;;;3.70;0.95;;;;;;;22.43;38.57;102045.97;16184911;19;130345;-53
2022/06/12 17:52:02;;;;;;;5.35;0.95;;;;;;;22.40;38.66;102043.69;16221372;19;129077;-50
2022/06/12 17:57:24;;;;;;;3.28;0.90;;;;;;;22.37;38.65;102046.97;16220266;19;128901;-53
2022/06/12 18:02:46;;;;;;;4.65;1.10;;;;;;;22.36;38.57;102048.06;16221797;19;129544;-54
2022/06/12 18:08:08;;;;;;;4.60;0.95;;;;;;;22.33;38.58;102050.50;16215475;19;128976;-58
2022/06/12 18:13:30;;;;;;;2.83;0.85;;;;;;;22.31;38.59;102049.88;16216205;19;128798;-55
2022/06/12 18:19:08;;;;;;;4.20;1.00;;;;;;;22.28;38.48;102051.19;16217568;19;128487;-54
2022/06/12 18:24:30;;;;;;;3.22;0.85;;;;;;;22.27;38.77;102049.53;16213185;19;128808;-60
2022/06/12 18:29:56;;;;;;;2.65;0.80;;;;;;;22.25;38.75;102040.56;16189556;19;129014;-55
2022/06/12 18:35:18;;;;;;;3.03;0.95;;;;;;;22.21;38.66;102040.22;16142774;19;129309;-54
2022/06/12 18:40:40;;;;;;;1.55;0.75;;;;;;;22.19;38.43;102039.56;16140708;19;129369;-52
2022/06/12 18:46:02;;;;;;;3.15;0.93;;;;;;;22.18;38.59;102037.00;16137693;19;131708;-55
2022/06/12 18:51:25;;;;;;;1.80;0.80;;;;;;;22.16;38.41;102050.34;16141026;19;129359;-54
2022/06/12 18:56:47;;;;;;;3.08;0.93;;;;;;;22.13;38.31;102049.75;16139850;19;129115;-54
2022/06/12 19:02:10;;;;;;;3.38;0.80;;;;;;;22.13;38.48;102044.19;16138773;19;129638;-54
2022/06/12 19:07:32;;;;;;;1.58;0.60;;;;;;;22.14;38.17;102050.59;16133841;19;128988;-54
2022/06/12 19:12:54;;;;;;;3.03;1.00;;;;;;;22.15;38.44;102045.88;16138074;19;128929;-55
2022/06/12 19:18:16;;;;;;;4.70;0.90;;;;;;;22.11;38.08;102051.06;16139453;19;131296;-54
2022/06/12 19:23:37;;;;;;;7.30;0.95;;;;;;;22.08;38.13;102057.97;16139030;19;129948;-54
2022/06/12 19:28:59;;;;;;;5.15;1.17;;;;;;;22.10;38.24;102057.72;16131347;19;130400;-54
2022/06/12 19:34:22;;;;;;;3.88;1.10;;;;;;;22.10;38.04;102060.50;16133713;19;130646;-53
2022/06/12 19:39:44;;;;;;;5.68;1.10;;;;;;;22.08;38.17;102069.13;16135577;19;129050;-53
2022/06/12 19:45:11;;;;;;;5.68;1.30;;;;;;;22.07;38.07;102064.66;16131697;19;129779;-53
2022/06/12 19:50:32;;;;;;;6.07;1.30;;;;;;;22.05;38.19;102064.03;16134684;19;131203;-54
2022/06/12 19:55:55;;;;;;;4.97;1.23;;;;;;;22.05;38.39;102063.19;16135588;19;130405;-54
2022/06/12 20:01:17;;;;;;;6.30;1.20;;;;;;;22.01;38.46;102074.00;16136976;19;130671;-55
2022/06/12 20:12:22;;;;;;;12.20;1.48;;;;;;;22.01;38.28;102084.28;16137626;19;128919;-55
2022/06/12 20:17:44;;;;;;;8.98;1.40;;;;;;;22.01;38.67;102084.28;16136531;19;129214;-55
2022/06/12 20:23:06;;;;;;;7.25;1.20;;;;;;;21.98;39.04;102088.41;16121119;19;130979;-54
2022/06/12 20:28:28;;;;;;;13.50;1.80;;;;;;;21.98;39.27;102086.44;16133311;19;129182;-55
2022/06/12 20:33:50;;;;;;;8.77;1.25;;;;;;;21.97;39.14;102084.75;16139120;19;128935;-55
2022/06/12 20:39:13;;;;;;;9.82;1.13;;;;;;;21.97;39.17;102089.47;16151868;19;129439;-54
2022/06/12 20:44:34;;;;;;;4.00;1.20;;;;;;;21.95;39.29;102086.94;16148484;19;129278;-54
2022/06/12 20:49:56;;;;;;;2.97;1.10;;;;;;;21.95;39.48;102077.72;16151331;19;130184;-55
2022/06/12 20:55:18;;;;;;;12.38;1.20;;;;;;;21.96;39.29;102087.78;16150543;19;129490;-55
2022/06/12 21:00:42;;;;;;;3.70;1.10;;;;;;;21.92;39.69;102087.41;16146913;19;129481;-52
2022/06/12 21:06:05;;;;;;;4.63;1.00;;;;;;;21.91;39.50;102085.72;16148133;19;130065;-55
2022/06/12 21:11:44;;;;;;;8.45;1.20;;;;;;;21.91;39.64;102091.28;16145970;19;129885;-53
2022/06/12 21:17:06;;;;;;;7.00;1.27;;;;;;;21.91;39.69;102093.25;16147486;19;130511;-51
2022/06/12 21:22:28;;;;;;;5.18;1.10;;;;;;;21.89;39.54;102096.25;16147864;19;129875;-55
2022/06/12 21:27:50;;;;;;;2.85;0.77;;;;;;;21.88;39.80;102094.56;16145426;19;132287;-55
2022/06/12 21:33:12;;;;;;;2.15;0.73;;;;;;;21.88;39.82;102079.78;16145712;19;128917;-55
2022/06/12 21:38:35;;;;;;;1.88;0.70;;;;;;;21.87;40.22;102083.66;16143238;19;130005;-57
2022/06/12 21:43:56;;;;;;;2.10;0.90;;;;;;;21.86;39.80;102087.53;16142679;19;129781;-55
2022/06/12 21:49:18;;;;;;;3.53;0.80;;;;;;;21.85;39.79;102080.25;16140395;19;129267;-54
2022/06/12 21:54:40;;;;;;;2.13;0.80;;;;;;;21.85;39.90;102083.06;16145730;19;129961;-59
2022/06/12 22:00:04;;;;;;;1.90;0.60;;;;;;;21.82;40.22;102076.88;16143889;19;128954;-55
2022/06/12 22:05:26;;;;;;;2.40;0.57;;;;;;;21.82;40.30;102082.44;16128013;19;129900;-55
2022/06/12 22:10:51;;;;;;;2.38;0.68;;;;;;;21.82;40.31;102081.59;16120913;19;129551;-55
2022/06/12 22:16:20;;;;;;;2.23;0.73;;;;;;;21.82;40.40;102081.59;16128971;19;129703;-52
2022/06/12 22:21:42;;;;;;;3.50;0.82;;;;;;;21.80;40.40;102079.03;16141339;19;130185;-56
2022/06/12 22:27:06;;;;;;;1.60;0.60;;;;;;;21.79;40.34;102084.84;16132964;19;129373;-55
2022/06/12 22:32:28;;;;;;;2.45;0.60;;;;;;;21.79;40.17;102082.06;16124617;19;130688;-54
2022/06/12 22:37:49;;;;;;;1.55;0.60;;;;;;;21.77;40.74;102073.97;16124484;19;129469;-51
2022/06/12 22:43:11;;;;;;;1.10;0.40;;;;;;;21.77;40.67;102078.69;16116445;19;130517;-56
2022/06/12 22:48:33;;;;;;;2.03;0.70;;;;;;;21.78;40.63;102072.03;16118308;19;129419;-51
2022/06/12 22:53:55;;;;;;;1.85;0.50;;;;;;;21.76;40.38;102060.25;16123410;19;130383;-47
2022/06/12 22:59:17;;;;;;;3.38;0.60;;;;;;;21.75;40.58;102069.72;16132783;19;129188;-54
2022/06/12 23:04:39;;;;;;;0.98;0.60;;;;;;;21.74;40.54;102068.88;16138545;19;129778;-51
2022/06/12 23:10:01;;;;;;;1.33;0.50;;;;;;;21.74;40.84;102056.88;16131269;19;128945;-51
2022/06/12 23:15:23;;;;;;;0.82;0.40;;;;;;;21.73;40.59;102064.38;16139964;19;131189;-51
2022/06/12 23:20:45;;;;;;;1.70;0.47;;;;;;;21.72;40.79;102053.50;16137793;19;129291;-53
2022/06/12 23:26:11;;;;;;;1.98;0.65;;;;;;;21.72;40.79;102047.94;16138065;19;129423;-52
2022/06/12 23:31:38;;;;;;;1.35;0.30;;;;;;;21.71;40.56;102049.84;16139933;19;129633;-54
2022/06/12 23:37:00;;;;;;;0.80;0.25;;;;;;;21.70;40.63;102056.50;16133240;19;131313;-49
2022/06/12 23:42:21;;;;;;;0.85;0.50;;;;;;;21.70;40.71;102041.75;16134993;19;130383;-55
2022/06/12 23:47:43;;;;;;;1.58;0.63;;;;;;;21.70;40.87;102050.09;16133650;19;130249;-47
2022/06/12 23:53:05;;;;;;;0.75;0.45;;;;;;;21.69;41.11;102043.66;16136914;19;129036;-48
2022/06/12 23:58:27;;;;;;;0.77;0.40;;;;;;;21.67;40.66;102032.78;16136861;19;129547;-49
